createdAt,value
2019-06-27T00:00:48.371Z,25.80
2019-06-27T00:03:16.400Z,25.80
2019-06-27T00:05:44.214Z,25.80
2019-06-27T00:08:11.850Z,25.90
2019-06-27T00:10:40.645Z,25.90
2019-06-27T00:13:08.358Z,25.80
2019-06-27T00:15:36.129Z,25.80
2019-06-27T00:18:03.845Z,25.80
2019-06-27T00:20:31.811Z,25.60
2019-06-27T00:22:59.793Z,25.50
2019-06-27T00:25:27.321Z,25.60
2019-06-27T00:27:54.869Z,25.50
2019-06-27T00:30:22.707Z,25.50
2019-06-27T00:32:50.238Z,25.50
2019-06-27T00:35:17.797Z,25.50
2019-06-27T00:37:45.775Z,25.50
2019-06-27T00:40:15.506Z,25.40
2019-06-27T00:42:43.011Z,25.30
2019-06-27T00:45:11.126Z,25.40
2019-06-27T00:47:38.631Z,25.30
2019-06-27T00:50:06.207Z,25.30
2019-06-27T00:52:33.798Z,25.20
2019-06-27T00:55:01.841Z,25.00
2019-06-27T00:57:29.860Z,25.20
2019-06-27T00:59:57.487Z,25.20
2019-06-27T01:02:25.525Z,25.20
2019-06-27T01:04:53.536Z,25.20
2019-06-27T01:07:21.051Z,25.20
2019-06-27T01:09:48.531Z,25.20
2019-06-27T01:12:16.012Z,25.10
2019-06-27T01:14:44.219Z,25.10
2019-06-27T01:17:12.382Z,25.10
2019-06-27T01:19:39.930Z,25.10
2019-06-27T01:22:07.625Z,25.10
2019-06-27T01:24:36.086Z,25.00
2019-06-27T01:27:03.674Z,24.80
2019-06-27T01:29:32.231Z,24.70
2019-06-27T01:32:00.149Z,24.70
2019-06-27T01:34:27.689Z,24.70
2019-06-27T01:36:55.245Z,24.80
2019-06-27T01:39:22.688Z,24.70
2019-06-27T01:41:50.513Z,24.70
2019-06-27T01:44:42.276Z,24.70
2019-06-27T01:47:10.418Z,24.60
2019-06-27T01:49:39.001Z,24.60
2019-06-27T01:52:06.931Z,24.70
2019-06-27T01:54:34.443Z,24.70
2019-06-27T01:57:02.406Z,24.70
2019-06-27T01:59:30.013Z,24.70
2019-06-27T02:01:57.902Z,24.70
2019-06-27T02:04:25.560Z,24.70
2019-06-27T02:06:53.106Z,24.70
2019-06-27T02:09:20.681Z,24.70
2019-06-27T02:11:48.369Z,24.70
2019-06-27T02:14:15.898Z,24.70
2019-06-27T02:16:43.475Z,24.70
2019-06-27T02:19:11.755Z,24.70
2019-06-27T02:21:40.213Z,24.50
2019-06-27T02:24:07.788Z,24.60
2019-06-27T02:26:35.305Z,24.60
2019-06-27T02:29:03.430Z,24.50
2019-06-27T02:31:30.922Z,24.50
2019-06-27T02:33:58.974Z,24.50
2019-06-27T02:36:26.642Z,24.50
2019-06-27T02:38:54.235Z,24.40
2019-06-27T02:41:21.889Z,24.40
2019-06-27T02:43:49.379Z,24.40
2019-06-27T02:46:18.382Z,24.30
2019-06-27T02:48:46.000Z,24.30
2019-06-27T02:51:13.570Z,24.40
2019-06-27T02:53:41.503Z,24.30
2019-06-27T02:56:10.056Z,24.30
2019-06-27T02:58:37.596Z,24.40
2019-06-27T03:01:05.169Z,24.40
2019-06-27T03:03:32.556Z,24.30
2019-06-27T03:06:00.281Z,24.30
2019-06-27T03:08:28.436Z,24.30
2019-06-27T03:10:56.402Z,24.20
2019-06-27T03:13:23.989Z,24.10
2019-06-27T03:15:51.631Z,24.10
2019-06-27T03:18:19.168Z,24.10
2019-06-27T03:20:47.640Z,24.00
2019-06-27T03:23:15.503Z,24.00
2019-06-27T03:25:43.039Z,24.00
2019-06-27T03:28:10.541Z,24.10
2019-06-27T03:30:38.355Z,24.00
2019-06-27T03:33:06.181Z,24.00
2019-06-27T03:35:33.784Z,24.00
2019-06-27T03:38:01.354Z,24.00
2019-06-27T03:40:28.945Z,24.00
2019-06-27T03:42:56.844Z,24.00
2019-06-27T03:45:24.662Z,24.00
2019-06-27T03:47:52.308Z,24.00
2019-06-27T03:50:19.889Z,23.90
2019-06-27T03:52:47.408Z,23.90
2019-06-27T03:55:14.925Z,23.90
2019-06-27T03:57:44.875Z,23.80
2019-06-27T04:00:18.897Z,23.90
2019-06-27T04:02:47.580Z,23.90
2019-06-27T04:05:15.416Z,23.80
2019-06-27T04:07:42.917Z,23.80
2019-06-27T04:10:10.633Z,23.80
2019-06-27T04:12:38.568Z,23.80
2019-06-27T04:15:06.631Z,23.80
2019-06-27T04:17:34.070Z,23.80
2019-06-27T04:20:01.668Z,23.70
2019-06-27T04:22:29.292Z,23.70
2019-06-27T04:24:57.311Z,23.70
2019-06-27T04:27:24.858Z,23.70
2019-06-27T04:29:52.841Z,23.80
2019-06-27T04:32:20.643Z,23.80
2019-06-27T04:34:48.352Z,23.80
2019-06-27T04:37:16.854Z,23.70
2019-06-27T04:39:44.437Z,23.70
2019-06-27T04:42:12.164Z,23.70
2019-06-27T04:44:39.782Z,23.70
2019-06-27T04:47:07.739Z,23.60
2019-06-27T04:49:41.004Z,23.70
2019-06-27T04:52:10.209Z,23.70
2019-06-27T04:54:38.206Z,23.60
2019-06-27T04:57:06.114Z,23.70
2019-06-27T04:59:51.799Z,23.70
2019-06-27T05:02:03.616Z,23.70
2019-06-27T05:04:31.167Z,23.70
2019-06-27T05:06:58.878Z,23.80
2019-06-27T05:09:26.812Z,23.80
2019-06-27T05:11:54.355Z,23.80
2019-06-27T05:14:22.190Z,23.80
2019-06-27T05:16:49.688Z,23.80
2019-06-27T05:19:17.223Z,23.80
2019-06-27T05:21:44.718Z,23.80
2019-06-27T05:24:12.248Z,23.90
2019-06-27T05:26:40.335Z,23.90
2019-06-27T05:29:08.169Z,23.90
2019-06-27T05:31:35.754Z,23.90
2019-06-27T05:34:03.610Z,23.90
2019-06-27T05:36:31.388Z,24.00
2019-06-27T05:38:58.936Z,24.00
2019-06-27T05:41:26.643Z,24.00
2019-06-27T05:43:54.991Z,24.00
2019-06-27T05:46:23.720Z,24.00
2019-06-27T05:48:52.360Z,24.10
2019-06-27T05:51:20.356Z,24.10
2019-06-27T05:53:48.453Z,24.00
2019-06-27T05:56:16.010Z,24.00
2019-06-27T05:58:43.821Z,24.10
2019-06-27T06:01:11.796Z,24.10
2019-06-27T06:03:39.455Z,24.10
2019-06-27T06:06:07.202Z,24.10
2019-06-27T06:08:34.985Z,24.10
2019-06-27T06:11:02.851Z,24.10
2019-06-27T06:13:30.807Z,24.10
2019-06-27T06:16:01.008Z,24.10
2019-06-27T06:18:27.680Z,24.20
2019-06-27T06:20:55.507Z,24.20
2019-06-27T06:23:23.037Z,24.20
2019-06-27T06:25:51.179Z,24.30
2019-06-27T06:28:18.723Z,24.20
2019-06-27T06:30:46.354Z,24.20
2019-06-27T06:33:14.904Z,24.30
2019-06-27T06:35:43.855Z,24.30
2019-06-27T06:38:11.368Z,24.30
2019-06-27T06:40:38.903Z,24.30
2019-06-27T06:43:06.297Z,24.40
2019-06-27T06:45:35.229Z,24.30
2019-06-27T06:48:02.850Z,24.40
2019-06-27T06:50:30.541Z,24.40
2019-06-27T06:52:58.080Z,24.50
2019-06-27T06:55:25.685Z,24.50
2019-06-27T06:57:53.190Z,24.50
2019-06-27T07:00:22.082Z,24.50
2019-06-27T07:02:49.889Z,24.60
2019-06-27T07:05:17.455Z,24.60
2019-06-27T07:07:46.436Z,24.70
2019-06-27T07:10:14.599Z,24.70
2019-06-27T07:12:42.513Z,24.80
2019-06-27T07:15:10.408Z,24.80
2019-06-27T07:17:38.068Z,24.80
2019-06-27T07:20:05.496Z,24.80
2019-06-27T07:22:33.161Z,24.90
2019-06-27T07:25:00.694Z,24.90
2019-06-27T07:27:28.211Z,25.00
2019-06-27T07:29:55.813Z,25.00
2019-06-27T07:32:25.118Z,25.10
2019-06-27T07:34:52.612Z,25.10
2019-06-27T07:37:20.380Z,25.10
2019-06-27T07:39:48.051Z,25.20
2019-06-27T07:42:16.622Z,25.20
2019-06-27T07:44:45.309Z,25.20
2019-06-27T07:47:12.917Z,25.30
2019-06-27T07:49:40.528Z,25.40
2019-06-27T07:52:09.278Z,25.40
2019-06-27T07:54:37.047Z,25.40
2019-06-27T07:57:04.667Z,25.40
2019-06-27T07:59:32.481Z,25.50
2019-06-27T08:02:00.224Z,25.50
2019-06-27T08:04:28.406Z,25.50
2019-06-27T08:06:56.062Z,25.60
2019-06-27T08:09:23.721Z,25.60
2019-06-27T08:11:51.609Z,25.60
2019-06-27T08:14:19.275Z,25.70
2019-06-27T08:16:46.839Z,25.70
2019-06-27T08:19:14.363Z,25.70
2019-06-27T08:21:42.220Z,25.70
2019-06-27T08:24:10.059Z,25.80
2019-06-27T08:26:38.379Z,25.80
2019-06-27T08:29:05.956Z,25.80
2019-06-27T08:31:33.670Z,25.90
2019-06-27T08:34:01.554Z,25.90
2019-06-27T08:36:29.081Z,25.90
2019-06-27T08:38:57.021Z,26.00
2019-06-27T08:41:24.962Z,26.00
2019-06-27T08:43:52.515Z,26.10
2019-06-27T08:46:20.315Z,26.10
2019-06-27T08:48:47.847Z,26.20
2019-06-27T08:51:16.051Z,26.20
2019-06-27T08:53:43.953Z,26.20
2019-06-27T08:56:11.486Z,26.30
2019-06-27T08:58:39.133Z,26.30
2019-06-27T09:01:07.218Z,26.40
2019-06-27T09:03:35.234Z,26.40
2019-06-27T09:06:02.800Z,26.40
2019-06-27T09:08:30.334Z,26.50
2019-06-27T09:10:57.951Z,26.50
2019-06-27T09:13:25.537Z,26.60
2019-06-27T09:15:53.147Z,26.70
2019-06-27T09:18:21.351Z,26.70
2019-06-27T09:20:48.878Z,26.70
2019-06-27T09:23:16.747Z,26.80
2019-06-27T09:25:44.616Z,26.80
2019-06-27T09:28:13.427Z,26.80
2019-06-27T09:30:41.071Z,26.90
2019-06-27T09:33:08.684Z,27.00
2019-06-27T09:35:36.258Z,27.00
2019-06-27T09:38:03.822Z,27.00
2019-06-27T09:40:31.284Z,27.10
2019-06-27T09:42:58.794Z,27.10
2019-06-27T09:45:26.432Z,27.10
2019-06-27T09:47:54.403Z,27.20
2019-06-27T09:50:22.027Z,27.30
2019-06-27T09:52:49.993Z,27.30
2019-06-27T09:55:18.091Z,27.40
2019-06-27T09:57:45.785Z,27.40
2019-06-27T10:00:14.051Z,27.50
2019-06-27T10:02:42.864Z,27.60
2019-06-27T10:05:10.650Z,27.60
2019-06-27T10:07:38.555Z,27.50
2019-06-27T10:10:07.476Z,27.60
2019-06-27T10:12:42.414Z,27.60
2019-06-27T10:15:04.801Z,27.60
2019-06-27T10:17:32.673Z,27.70
2019-06-27T10:20:00.989Z,27.80
2019-06-27T10:22:28.404Z,27.90
2019-06-27T10:24:56.316Z,27.90
2019-06-27T10:27:24.141Z,28.10
2019-06-27T10:29:53.053Z,28.20
2019-06-27T10:32:20.917Z,28.20
2019-06-27T10:34:48.683Z,28.20
2019-06-27T10:37:16.442Z,28.20
2019-06-27T10:39:44.641Z,28.30
2019-06-27T10:42:12.683Z,28.30
2019-06-27T10:44:40.258Z,28.30
2019-06-27T10:47:07.778Z,28.30
2019-06-27T10:49:36.224Z,28.30
2019-06-27T10:52:03.740Z,28.40
2019-06-27T10:54:31.377Z,28.40
2019-06-27T10:57:00.007Z,28.40
2019-06-27T10:59:27.653Z,28.50
2019-06-27T11:01:55.494Z,28.60
2019-06-27T11:04:23.257Z,28.60
2019-06-27T11:06:51.055Z,28.60
2019-06-27T11:09:18.649Z,28.70
2019-06-27T11:11:46.585Z,28.70
2019-06-27T11:14:14.189Z,28.80
2019-06-27T11:16:41.832Z,28.80
2019-06-27T11:19:09.521Z,28.70
2019-06-27T11:21:37.304Z,28.80
2019-06-27T11:24:04.845Z,28.80
2019-06-27T11:26:32.637Z,28.90
2019-06-27T11:29:01.291Z,29.00
2019-06-27T11:31:29.125Z,29.00
2019-06-27T11:33:56.710Z,29.00
2019-06-27T11:36:24.120Z,29.10
2019-06-27T11:38:51.954Z,29.00
2019-06-27T11:41:19.786Z,29.00
2019-06-27T11:43:47.485Z,29.10
2019-06-27T11:46:15.049Z,29.20
2019-06-27T11:48:42.609Z,29.20
2019-06-27T11:51:10.497Z,29.20
2019-06-27T11:53:38.147Z,29.20
2019-06-27T11:56:06.414Z,29.30
2019-06-27T11:58:33.859Z,29.30
2019-06-27T12:01:02.047Z,29.30
2019-06-27T12:03:29.938Z,29.40
2019-06-27T12:05:57.368Z,29.50
2019-06-27T12:08:25.310Z,29.50
2019-06-27T12:10:53.232Z,29.50
2019-06-27T12:13:21.151Z,29.50
2019-06-27T12:15:51.591Z,29.60
2019-06-27T12:18:18.841Z,29.60
2019-06-27T12:20:46.264Z,29.60
2019-06-27T12:23:14.059Z,29.70
2019-06-27T12:25:41.983Z,29.70
2019-06-27T12:28:09.674Z,29.70
2019-06-27T12:30:37.284Z,29.80
2019-06-27T12:33:04.905Z,29.90
2019-06-27T12:35:32.458Z,29.90
2019-06-27T12:37:59.998Z,30.00
2019-06-27T12:40:27.502Z,30.00
2019-06-27T12:42:54.952Z,30.00
2019-06-27T12:45:22.323Z,30.00
2019-06-27T12:47:50.219Z,30.10
2019-06-27T12:50:17.905Z,30.20
2019-06-27T12:52:45.705Z,30.20
2019-06-27T12:55:13.595Z,30.20
2019-06-27T12:57:40.966Z,30.30
2019-06-27T13:00:09.263Z,30.30
2019-06-27T13:02:37.236Z,30.30
2019-06-27T13:05:05.683Z,30.30
2019-06-27T13:07:34.233Z,30.30
2019-06-27T13:10:02.469Z,30.30
2019-06-27T13:12:30.028Z,30.30
2019-06-27T13:14:57.762Z,30.40
2019-06-27T13:17:25.379Z,30.40
2019-06-27T13:19:53.288Z,30.50
2019-06-27T13:22:20.817Z,30.50
2019-06-27T13:24:48.336Z,30.50
2019-06-27T13:27:15.849Z,30.50
2019-06-27T13:29:43.374Z,30.50
2019-06-27T13:32:10.858Z,30.50
2019-06-27T13:34:40.898Z,30.50
2019-06-27T13:37:08.303Z,30.50
2019-06-27T13:39:35.979Z,30.50
2019-06-27T13:42:04.063Z,30.50
2019-06-27T13:44:31.854Z,30.50
2019-06-27T13:46:59.582Z,30.50
2019-06-27T13:49:27.241Z,30.50
2019-06-27T13:51:55.430Z,30.50
2019-06-27T13:54:22.925Z,30.60
2019-06-27T13:56:50.485Z,30.50
2019-06-27T13:59:18.260Z,30.50
2019-06-27T14:01:45.794Z,30.50
2019-06-27T14:04:13.403Z,30.50
2019-06-27T14:06:41.457Z,30.50
2019-06-27T14:09:21.914Z,30.50
2019-06-27T14:11:38.716Z,30.50
2019-06-27T14:14:06.258Z,30.50
2019-06-27T14:16:33.799Z,30.40
2019-06-27T14:19:01.793Z,30.50
2019-06-27T14:21:29.292Z,30.40
2019-06-27T14:23:56.816Z,30.40
2019-06-27T14:26:24.357Z,30.40
2019-06-27T14:28:51.869Z,30.40
2019-06-27T14:31:19.718Z,30.40
2019-06-27T14:33:47.370Z,30.30
2019-06-27T14:36:14.861Z,30.40
2019-06-27T14:38:42.412Z,30.30
2019-06-27T14:41:10.330Z,30.30
2019-06-27T14:43:38.082Z,30.30
2019-06-27T14:46:06.089Z,30.30
2019-06-27T14:48:33.916Z,30.30
2019-06-27T14:51:01.458Z,30.20
2019-06-27T14:53:29.173Z,30.20
2019-06-27T14:55:56.747Z,30.20
2019-06-27T14:58:24.214Z,30.20
2019-06-27T15:00:51.597Z,30.20
2019-06-27T15:03:19.102Z,30.10
2019-06-27T15:05:46.681Z,30.10
2019-06-27T15:08:14.281Z,30.10
2019-06-27T15:10:42.229Z,30.10
2019-06-27T15:13:09.745Z,30.00
2019-06-27T15:15:37.270Z,30.00
2019-06-27T15:18:04.662Z,30.10
2019-06-27T15:20:32.287Z,30.00
2019-06-27T15:23:00.052Z,30.00
2019-06-27T15:25:28.572Z,30.00
2019-06-27T15:27:56.423Z,30.00
2019-06-27T15:30:23.945Z,30.00
2019-06-27T15:32:51.940Z,30.00
2019-06-27T15:35:19.871Z,30.10
2019-06-27T15:37:47.437Z,30.00
2019-06-27T15:40:14.965Z,30.00
2019-06-27T15:42:42.455Z,30.00
2019-06-27T15:45:10.379Z,30.00
2019-06-27T15:47:38.371Z,30.00
2019-06-27T15:50:06.556Z,30.00
2019-06-27T15:52:34.259Z,30.10
2019-06-27T15:55:01.830Z,30.00
2019-06-27T15:57:29.522Z,30.00
2019-06-27T15:59:57.195Z,30.00
2019-06-27T16:02:25.044Z,30.00
2019-06-27T16:04:52.895Z,30.00
2019-06-27T16:07:21.836Z,30.00
2019-06-27T16:09:49.603Z,29.90
2019-06-27T16:12:17.763Z,29.90
2019-06-27T16:14:45.672Z,29.90
2019-06-27T16:17:13.264Z,29.80
2019-06-27T16:19:40.775Z,29.80
2019-06-27T16:22:08.426Z,29.80
2019-06-27T16:24:36.287Z,29.80
2019-06-27T16:27:03.848Z,29.80
2019-06-27T16:29:31.471Z,29.80
2019-06-27T16:31:59.053Z,29.80
2019-06-27T16:34:28.946Z,29.80
2019-06-27T16:36:56.711Z,29.80
2019-06-27T16:39:24.607Z,29.80
2019-06-27T16:41:52.128Z,29.70
2019-06-27T16:44:19.524Z,29.70
2019-06-27T16:46:47.037Z,29.70
2019-06-27T16:49:14.595Z,29.60
2019-06-27T16:51:42.127Z,29.60
2019-06-27T16:54:10.947Z,29.60
2019-06-27T16:56:38.757Z,29.60
2019-06-27T16:59:06.249Z,29.60
2019-06-27T17:01:33.752Z,29.60
2019-06-27T17:04:01.730Z,29.50
2019-06-27T17:06:41.297Z,29.60
2019-06-27T17:08:59.503Z,29.50
2019-06-27T17:11:27.043Z,29.50
2019-06-27T17:13:54.505Z,29.50
2019-06-27T17:16:22.526Z,29.50
2019-06-27T17:18:50.222Z,29.50
2019-06-27T17:21:18.273Z,29.50
2019-06-27T17:23:46.093Z,29.40
2019-06-27T17:26:13.682Z,29.40
2019-06-27T17:28:41.194Z,29.30
2019-06-27T17:31:08.701Z,29.30
2019-06-27T17:33:36.467Z,29.30
2019-06-27T17:36:04.233Z,29.30
2019-06-27T17:38:32.081Z,29.30
2019-06-27T17:40:59.676Z,29.20
2019-06-27T17:43:27.250Z,29.20
2019-06-27T17:45:54.849Z,29.20
2019-06-27T17:48:22.926Z,29.10
2019-06-27T17:50:50.712Z,29.10
2019-06-27T17:53:18.549Z,29.00
2019-06-27T17:55:46.337Z,29.00
2019-06-27T17:58:14.251Z,29.00
2019-06-27T18:00:41.840Z,29.00
2019-06-27T18:03:09.338Z,28.90
2019-06-27T18:05:36.829Z,28.90
2019-06-27T18:08:04.755Z,28.90
2019-06-27T18:10:32.489Z,28.80
2019-06-27T18:12:59.898Z,28.80
2019-06-27T18:15:27.487Z,28.80
2019-06-27T18:17:55.110Z,28.70
2019-06-27T18:20:22.617Z,28.70
2019-06-27T18:22:50.504Z,28.60
2019-06-27T18:25:18.469Z,28.60
2019-06-27T18:27:46.754Z,28.50
2019-06-27T18:30:14.610Z,28.50
2019-06-27T18:32:42.035Z,28.40
2019-06-27T18:35:09.701Z,28.40
2019-06-27T18:37:37.119Z,28.30
2019-06-27T18:40:05.737Z,28.30
2019-06-27T18:42:33.671Z,28.20
2019-06-27T18:45:01.506Z,28.10
2019-06-27T18:47:29.579Z,28.00
2019-06-27T18:49:57.366Z,28.00
2019-06-27T18:52:25.247Z,27.90
2019-06-27T18:54:53.091Z,27.90
2019-06-27T18:57:20.635Z,27.80
2019-06-27T18:59:49.097Z,27.70
2019-06-27T19:02:16.616Z,27.70
2019-06-27T19:04:44.230Z,27.60
2019-06-27T19:07:12.331Z,27.50
2019-06-27T19:09:39.895Z,27.40
2019-06-27T19:12:07.383Z,27.40
2019-06-27T19:14:35.538Z,27.40
2019-06-27T19:17:03.110Z,27.30
2019-06-27T19:19:32.863Z,27.30
2019-06-27T19:22:22.991Z,27.30
2019-06-27T19:25:05.149Z,27.30
2019-06-27T19:27:33.125Z,27.20
2019-06-27T19:30:01.022Z,27.20
2019-06-27T19:32:28.843Z,27.20
2019-06-27T19:34:56.439Z,27.20
2019-06-27T19:37:24.497Z,27.10
2019-06-27T19:39:51.927Z,27.00
2019-06-27T19:42:19.492Z,27.00
2019-06-27T19:44:47.357Z,26.90
2019-06-27T19:47:15.222Z,26.90
2019-06-27T19:49:43.196Z,26.90
2019-06-27T19:52:10.836Z,26.80
2019-06-27T19:54:38.497Z,26.80
2019-06-27T19:57:06.057Z,26.80
2019-06-27T19:59:33.705Z,26.80
2019-06-27T20:02:01.395Z,26.70
2019-06-27T20:04:28.773Z,26.70
2019-06-27T20:06:56.493Z,26.60
2019-06-27T20:09:24.317Z,26.60
2019-06-27T20:11:51.731Z,26.50
2019-06-27T20:14:19.331Z,26.40
2019-06-27T20:16:46.921Z,26.40
2019-06-27T20:19:14.455Z,26.40
2019-06-27T20:21:42.217Z,26.30
2019-06-27T20:24:09.814Z,26.30
2019-06-27T20:26:37.769Z,26.30
2019-06-27T20:29:05.797Z,26.20
2019-06-27T20:31:33.277Z,26.20
2019-06-27T20:34:00.737Z,26.10
2019-06-27T20:36:28.258Z,26.10
2019-06-27T20:38:55.820Z,26.10
2019-06-27T20:41:23.216Z,26.10
2019-06-27T20:43:50.745Z,26.00
2019-06-27T20:46:18.289Z,26.00
2019-06-27T20:48:45.786Z,26.00
2019-06-27T20:51:13.313Z,25.80
2019-06-27T20:53:40.850Z,25.70
2019-06-27T20:56:08.477Z,25.60
2019-06-27T20:58:36.312Z,25.50
2019-06-27T21:01:03.928Z,25.50
2019-06-27T21:03:31.794Z,25.40
2019-06-27T21:05:59.676Z,25.50
2019-06-27T21:08:27.274Z,25.50
2019-06-27T21:10:54.822Z,25.30
2019-06-27T21:13:22.430Z,25.30
2019-06-27T21:15:50.594Z,25.30
2019-06-27T21:18:18.374Z,25.30
2019-06-27T21:20:45.992Z,25.30
2019-06-27T21:23:13.497Z,25.20
2019-06-27T21:25:41.015Z,25.00
2019-06-27T21:28:08.756Z,25.00
2019-06-27T21:30:36.317Z,25.10
2019-06-27T21:33:03.871Z,25.10
2019-06-27T21:35:31.362Z,25.00
2019-06-27T21:37:58.871Z,25.00
2019-06-27T21:40:26.477Z,24.90
2019-06-27T21:42:54.122Z,25.00
2019-06-27T21:45:21.663Z,25.00
2019-06-27T21:47:49.518Z,24.90
2019-06-27T21:50:17.379Z,24.70
2019-06-27T21:52:44.889Z,24.80
2019-06-27T21:55:12.626Z,24.80
2019-06-27T21:57:40.248Z,24.80
2019-06-27T22:00:10.141Z,24.70
2019-06-27T22:02:39.960Z,24.80
2019-06-27T22:05:08.082Z,24.70
2019-06-27T22:07:35.702Z,24.50
2019-06-27T22:10:03.977Z,24.50
2019-06-27T22:12:34.398Z,24.30
2019-06-27T22:15:01.357Z,24.30
2019-06-27T22:17:28.897Z,24.30
2019-06-27T22:20:04.947Z,24.20
2019-06-27T22:22:26.417Z,24.30
2019-06-27T22:24:54.096Z,24.20
2019-06-27T22:27:22.346Z,24.20
2019-06-27T22:29:49.872Z,24.20
2019-06-27T22:32:17.467Z,24.20
2019-06-27T22:34:44.933Z,24.20
2019-06-27T22:37:12.450Z,24.20
2019-06-27T22:39:57.900Z,24.20
2019-06-27T22:42:44.352Z,24.20
2019-06-27T22:45:30.230Z,24.10
2019-06-27T22:48:12.439Z,24.10
2019-06-27T22:51:10.993Z,24.10
2019-06-27T22:53:51.433Z,24.00
2019-06-27T22:56:18.868Z,23.90
2019-06-27T22:58:46.315Z,23.90
2019-06-27T23:01:14.224Z,24.00
2019-06-27T23:03:42.125Z,23.90
2019-06-27T23:06:09.679Z,23.70
2019-06-27T23:08:37.165Z,23.50
2019-06-27T23:11:04.712Z,23.60
2019-06-27T23:13:33.017Z,23.30
2019-06-27T23:16:00.589Z,23.40
2019-06-27T23:18:28.025Z,23.40
2019-06-27T23:20:55.513Z,23.30
2019-06-27T23:23:23.413Z,23.30
2019-06-27T23:25:51.024Z,23.40
2019-06-27T23:28:18.675Z,23.30
2019-06-27T23:30:46.189Z,23.30
2019-06-27T23:33:13.770Z,23.30
2019-06-27T23:35:41.596Z,23.30
2019-06-27T23:38:09.499Z,23.20
2019-06-27T23:40:37.020Z,23.30
2019-06-27T23:43:04.830Z,23.30
2019-06-27T23:45:32.696Z,23.20
2019-06-27T23:48:00.656Z,23.10
2019-06-27T23:50:28.177Z,23.10
2019-06-27T23:52:56.728Z,23.00
2019-06-27T23:55:24.591Z,23.00
2019-06-27T23:57:52.048Z,22.80
